DAUB

Biskra Airport

Biskra, Algeria

DAUB 110900Z 12010KT 9999 FEW040 SCT100 10/02 Q1016

Observed Flight Rules
Dec-11 @ 09:00 UTC (34 minutes ago) Visual Flight Rules
Wind Visibility Clouds
120° at 10 knots 10,000+ meters
  • Few at 4,000' AGL
  • Scattered at 10,000' AGL
Temperatures Readings
Current 10°C / 50°F
Dewpoint 2°C / 36°F
Humidity 58%
Altimeter 30" Hg
Pressure 1016 hPa
Elevation 87
Observed Flight Rules
Dec-11 @ 09:00 UTC
(34 minutes ago)
VFR
Wind Visibility
120° at 10 knots 10,000+ meters
Clouds
  • Few at 4,000' AGL
  • Scattered at 10,000' AGL
Temperature Dewpoint
10°C / 50°F 2°C / 36°F
Humidity Altimeter Pressure
58% 30" Hg 1016 hPa